Iowa City, Iowa
Current Conditions -  °F | °C
As of 4:52 PM on Tuesday 25 Nov 2014 (Local Time) from KIOW Reporting Station
Clear Clear  
Wind Chill: 19°   Ceiling: Unl
Heat Index: 26°   Visibility: 10mi
Dew Point: 19°   Wind: 6mph
Humidity: 75%   Direction: 170°S
Pressure: 30.14"   Gusts: NA
Location:  41.66°N, 91.53°W
Report Text: KIOW 252252Z AUTO 17005KT 10SM CLR M03/M07 A3014 RMK AO2 SLP216 T10331072
Loading
Personal Weather Stations






























Interactive Weather Map New forecast layout! Learn more

10-Day Weather Forecast

Advertisements
Track Severe Weather on mobile